Tontitown, Arkansas
Current Conditions -  °F | °C
As of 8:48 PM on Sunday 21 Dec 2014 (Local Time) from KASG Reporting Station
Overcast Overcast  
Wind Chill: 38°   Ceiling: 2100
Heat Index: 45°   Visibility: 10mi
Dew Point: 37°   Wind: 13mph
Humidity: 76%   Direction: 140°SE
Pressure: 29.85"   Gusts: NA
Location:  36.18°N, 94.23°W
Report Text: KASG 220248Z 14011KT 10SM OVC021 07/03 A2985
Loading
Personal Weather Stations






























Interactive Weather Map New forecast layout! Learn more

10-Day Weather Forecast

Advertisements
Track Severe Weather on mobile